createdAt,value
2017-09-11T00:00:02.174Z,12.88
2017-09-11T00:05:02.969Z,12.86
2017-09-11T00:10:02.177Z,12.85
2017-09-11T00:15:02.395Z,12.86
2017-09-11T00:20:02.703Z,12.9
2017-09-11T00:25:02.881Z,12.9
2017-09-11T00:30:03.056Z,12.89
2017-09-11T00:35:03.101Z,12.9
2017-09-11T00:40:02.343Z,12.9
2017-09-11T00:45:02.600Z,12.89
2017-09-11T00:50:02.404Z,12.87
2017-09-11T00:55:02.621Z,12.81
2017-09-11T01:00:02.819Z,12.76
2017-09-11T01:05:02.596Z,12.75
2017-09-11T01:10:02.780Z,12.8
2017-09-11T01:15:03.013Z,12.87
2017-09-11T01:20:02.370Z,12.96
2017-09-11T01:25:02.591Z,13.05
2017-09-11T01:30:02.825Z,13.09
2017-09-11T01:35:02.516Z,13.11
2017-09-11T01:40:02.849Z,13.14
2017-09-11T01:45:03.021Z,13.16
2017-09-11T01:50:02.618Z,13.18
2017-09-11T01:55:02.813Z,13.2
2017-09-11T02:00:02.974Z,13.21
2017-09-11T02:05:02.914Z,13.19
2017-09-11T02:10:03.104Z,13.18
2017-09-11T02:15:02.323Z,13.16
2017-09-11T02:20:02.936Z,13.17
2017-09-11T02:25:02.152Z,13.16
2017-09-11T02:30:02.348Z,13.18
2017-09-11T02:35:02.364Z,13.19
2017-09-11T02:40:02.612Z,13.22
2017-09-11T02:45:02.772Z,13.24
2017-09-11T02:50:03.101Z,13.24
2017-09-11T02:55:02.307Z,13.29
2017-09-11T03:00:02.547Z,13.29
2017-09-11T03:05:02.272Z,13.3
2017-09-11T03:10:02.471Z,13.3
2017-09-11T03:15:02.693Z,13.3
2017-09-11T03:20:02.558Z,13.3
2017-09-11T03:25:02.748Z,13.3
2017-09-11T03:30:02.952Z,13.33
2017-09-11T03:35:02.288Z,13.36
2017-09-11T03:40:02.500Z,13.38
2017-09-11T03:45:02.714Z,13.39
2017-09-11T03:50:03.011Z,13.4
2017-09-11T03:55:02.208Z,13.41
2017-09-11T04:00:02.427Z,13.44
2017-09-11T04:05:02.847Z,13.45
2017-09-11T04:10:03.081Z,13.47
2017-09-11T04:15:02.315Z,13.47
2017-09-11T04:20:02.716Z,13.51
2017-09-11T04:25:02.947Z,13.51
2017-09-11T04:30:02.205Z,13.52
2017-09-11T04:35:02.866Z,13.53
2017-09-11T04:40:03.070Z,13.54
2017-09-11T04:45:02.297Z,13.55
2017-09-11T04:50:03.011Z,13.58
2017-09-11T04:55:02.239Z,13.56
2017-09-11T05:00:02.408Z,13.58
2017-09-11T05:05:02.987Z,13.59
2017-09-11T05:10:02.229Z,13.62
2017-09-11T05:15:02.466Z,13.64
2017-09-11T05:20:02.295Z,13.65
2017-09-11T05:25:02.559Z,13.67
2017-09-11T05:30:02.798Z,13.65
2017-09-11T05:35:03.033Z,13.65
2017-09-11T05:40:02.248Z,13.63
2017-09-11T05:45:02.446Z,13.63
2017-09-11T05:50:02.412Z,13.6
2017-09-11T05:55:02.618Z,13.6
2017-09-11T06:00:02.838Z,13.56
2017-09-11T06:05:03.171Z,13.56
2017-09-11T06:10:02.386Z,13.56
2017-09-11T06:15:02.638Z,13.58
2017-09-11T06:20:02.399Z,13.56
2017-09-11T06:25:02.593Z,13.56
2017-09-11T06:30:02.808Z,13.58
2017-09-11T06:35:02.676Z,13.51
2017-09-11T06:40:02.877Z,13.49
2017-09-11T06:45:03.105Z,13.48
2017-09-11T06:50:02.824Z,13.49
2017-09-11T06:55:03.042Z,13.51
2017-09-11T07:00:02.254Z,13.55
2017-09-11T07:05:02.470Z,13.59
2017-09-11T07:10:02.642Z,13.65
2017-09-11T07:15:02.807Z,13.69
2017-09-11T07:20:02.440Z,13.73
2017-09-11T07:25:02.632Z,13.71
2017-09-11T07:30:02.837Z,13.76
2017-09-11T07:35:03.044Z,13.83
2017-09-11T07:40:02.238Z,13.95
2017-09-11T07:45:02.417Z,14.03
2017-09-11T07:50:03.099Z,14.09
2017-09-11T07:55:02.334Z,14.11
2017-09-11T08:00:02.555Z,14.11
2017-09-11T08:05:02.908Z,14.12
2017-09-11T08:10:03.109Z,14.19
2017-09-11T08:15:02.349Z,14.22
2017-09-11T08:20:02.821Z,14.17
2017-09-11T08:25:03.015Z,14.23
2017-09-11T08:30:02.221Z,14.28
2017-09-11T08:35:02.500Z,14.3
2017-09-11T08:40:02.726Z,14.27
2017-09-11T08:45:02.960Z,14.29
2017-09-11T08:50:02.187Z,14.38
2017-09-11T08:55:02.384Z,14.4
2017-09-11T09:00:02.574Z,14.4
2017-09-11T09:05:03.101Z,14.44
2017-09-11T09:10:02.300Z,14.64
2017-09-11T09:15:02.540Z,14.83
2017-09-11T09:20:02.311Z,14.93
2017-09-11T09:25:02.535Z,14.91
2017-09-11T09:30:02.742Z,14.87
2017-09-11T09:35:02.273Z,14.86
2017-09-11T09:40:02.500Z,14.92
2017-09-11T09:45:02.749Z,14.88
2017-09-11T09:50:02.160Z,14.84
2017-09-11T09:55:02.385Z,14.88
2017-09-11T10:00:02.576Z,14.89
2017-09-11T10:05:02.446Z,14.92
2017-09-11T10:10:02.682Z,14.96
2017-09-11T10:15:02.912Z,14.99
2017-09-11T10:20:02.627Z,14.98
2017-09-11T10:25:02.814Z,14.89
2017-09-11T10:30:03.029Z,14.85
2017-09-11T10:35:02.667Z,14.83
2017-09-11T10:40:02.870Z,14.85
2017-09-11T10:45:03.060Z,14.91
2017-09-11T10:50:02.744Z,14.98
2017-09-11T10:55:02.929Z,15.13
2017-09-11T11:00:03.137Z,15.27
2017-09-11T11:05:02.274Z,15.43
2017-09-11T11:10:02.501Z,15.46
2017-09-11T11:15:02.697Z,15.46
2017-09-11T11:20:02.338Z,15.47
2017-09-11T11:25:02.588Z,15.57
2017-09-11T11:30:02.792Z,15.62
2017-09-11T11:35:03.022Z,15.63
2017-09-11T11:40:02.235Z,15.67
2017-09-11T11:45:02.464Z,15.72
2017-09-11T11:50:02.813Z,15.84
2017-09-11T11:55:03.091Z,15.91
2017-09-11T12:00:02.323Z,15.89
2017-09-11T12:05:02.732Z,15.85
2017-09-11T12:10:02.926Z,15.84
2017-09-11T12:15:03.125Z,15.85
2017-09-11T12:20:03.032Z,15.88
2017-09-11T12:25:02.236Z,15.92
2017-09-11T12:30:02.454Z,16.19
2017-09-11T12:35:02.633Z,16.46
2017-09-11T12:40:02.870Z,16.64
2017-09-11T12:45:03.063Z,16.58
2017-09-11T12:50:03.045Z,16.36
2017-09-11T12:55:02.216Z,16.31
2017-09-11T13:00:02.393Z,16.52
2017-09-11T13:05:02.377Z,16.76
2017-09-11T13:10:02.611Z,17.06
2017-09-11T13:15:02.823Z,17.11
2017-09-11T13:20:02.296Z,16.89
2017-09-11T13:25:02.534Z,16.67
2017-09-11T13:30:02.749Z,16.56
2017-09-11T13:35:03.065Z,16.56
2017-09-11T13:40:02.286Z,16.57
2017-09-11T13:45:02.515Z,16.79
2017-09-11T13:50:02.775Z,17.04
2017-09-11T13:55:03.026Z,17.25
2017-09-11T14:00:02.212Z,17.38
2017-09-11T14:05:02.826Z,17.3
2017-09-11T14:10:03.047Z,17.11
2017-09-11T14:15:02.214Z,16.92
2017-09-11T14:20:02.779Z,16.75
2017-09-11T14:25:02.966Z,16.93
2017-09-11T14:30:02.119Z,17.14
2017-09-11T14:35:02.739Z,17
2017-09-11T14:40:02.968Z,16.76
2017-09-11T14:45:02.166Z,16.56
2017-09-11T14:50:02.395Z,16.6
2017-09-11T14:55:02.592Z,16.84
2017-09-11T15:00:02.769Z,17.11
2017-09-11T15:05:02.899Z,17.22
2017-09-11T15:10:03.067Z,17.21
2017-09-11T15:15:02.267Z,17.17
2017-09-11T15:20:02.674Z,17.11
2017-09-11T15:25:02.950Z,17.07
2017-09-11T15:30:02.162Z,17.08
2017-09-11T15:35:02.400Z,17.08
2017-09-11T15:40:02.613Z,17.06
2017-09-11T15:45:02.805Z,17.04
2017-09-11T15:50:02.636Z,16.99
2017-09-11T15:55:02.809Z,16.96
2017-09-11T16:00:02.996Z,16.91
2017-09-11T16:05:02.830Z,16.84
2017-09-11T16:10:03.060Z,16.75
2017-09-11T16:15:02.250Z,16.7
2017-09-11T16:20:02.619Z,16.64
2017-09-11T16:25:02.790Z,16.63
2017-09-11T16:30:02.950Z,16.61
2017-09-11T16:35:02.906Z,16.52
2017-09-11T16:40:03.106Z,16.45
2017-09-11T16:45:02.316Z,16.37
2017-09-11T16:50:02.982Z,16.29
2017-09-11T16:55:02.150Z,16.19
2017-09-11T17:00:02.350Z,16.12
2017-09-11T17:05:03.082Z,16.02
2017-09-11T17:10:02.302Z,15.91
2017-09-11T17:15:02.518Z,15.77
2017-09-11T17:20:02.781Z,15.68
2017-09-11T17:25:02.999Z,15.57
2017-09-11T17:30:02.197Z,15.48
2017-09-11T17:35:02.381Z,15.36
2017-09-11T17:40:02.587Z,15.25
2017-09-11T17:45:02.809Z,15.17
2017-09-11T17:50:02.349Z,15.03
2017-09-11T17:55:02.566Z,14.93
2017-09-11T18:00:02.752Z,14.81
2017-09-11T18:05:02.902Z,14.69
2017-09-11T18:10:03.120Z,14.62
2017-09-11T18:15:02.384Z,14.56
2017-09-11T18:20:02.753Z,14.53
2017-09-11T18:25:02.967Z,14.52
2017-09-11T18:30:02.190Z,14.53
2017-09-11T18:35:02.585Z,14.63
2017-09-11T18:40:02.776Z,14.67
2017-09-11T18:45:03.007Z,14.69
2017-09-11T18:50:02.724Z,14.67
2017-09-11T18:55:02.901Z,14.67
2017-09-11T19:00:03.112Z,14.58
2017-09-11T19:05:02.715Z,14.52
2017-09-11T19:10:02.921Z,14.47
2017-09-11T19:15:02.155Z,14.41
2017-09-11T19:20:02.271Z,14.43
2017-09-11T19:25:02.475Z,14.45
2017-09-11T19:30:02.643Z,14.44
2017-09-11T19:35:02.248Z,14.43
2017-09-11T19:40:02.457Z,14.41
2017-09-11T19:45:02.650Z,14.43
2017-09-11T19:50:03.082Z,14.47
2017-09-11T19:55:02.326Z,14.51
2017-09-11T20:00:02.483Z,14.47
2017-09-11T20:05:02.127Z,14.39
2017-09-11T20:10:02.337Z,14.33
2017-09-11T20:15:02.510Z,14.29
2017-09-11T20:20:02.148Z,14.23
2017-09-11T20:25:02.369Z,14.19
2017-09-11T20:30:02.576Z,14.13
2017-09-11T20:35:02.804Z,14.09
2017-09-11T20:40:03.166Z,14.01
2017-09-11T20:45:02.407Z,13.96
2017-09-11T20:50:02.376Z,13.91
2017-09-11T20:55:02.596Z,13.89
2017-09-11T21:00:02.863Z,13.89
2017-09-11T21:05:02.640Z,13.88
2017-09-11T21:10:02.825Z,13.89
2017-09-11T21:15:03.032Z,13.88
2017-09-11T21:20:02.990Z,13.96
2017-09-11T21:25:02.185Z,14.03
2017-09-11T21:30:02.355Z,14.07
2017-09-11T21:35:02.581Z,14.08
2017-09-11T21:40:02.788Z,14.07
2017-09-11T21:45:02.967Z,14.08
2017-09-11T21:50:02.943Z,14.12
2017-09-11T21:55:02.087Z,14.12
2017-09-11T22:00:02.532Z,14.14
2017-09-11T22:05:02.694Z,14.17
2017-09-11T22:10:03.013Z,14.19
2017-09-11T22:15:02.352Z,14.2
2017-09-11T22:20:02.301Z,14.23
2017-09-11T22:25:02.663Z,14.22
2017-09-11T22:30:03.056Z,14.22
2017-09-11T22:35:02.859Z,14.24
2017-09-11T22:40:02.214Z,14.27
2017-09-11T22:45:02.574Z,14.25
2017-09-11T22:50:03.087Z,14.23
2017-09-11T22:55:02.449Z,14.23
2017-09-11T23:00:02.809Z,14.22
2017-09-11T23:05:02.365Z,14.21
2017-09-11T23:10:02.571Z,14.21
2017-09-11T23:15:02.746Z,14.2
2017-09-11T23:20:02.972Z,14.15
2017-09-11T23:25:02.203Z,14.09
2017-09-11T23:30:02.449Z,14.01
2017-09-11T23:35:02.221Z,13.98
2017-09-11T23:40:02.455Z,13.98
2017-09-11T23:45:02.688Z,13.98
2017-09-11T23:50:02.575Z,13.96
2017-09-11T23:55:02.787Z,13.92
